createdAt,value
2022-08-22T00:02:33.017Z,62.55
2022-08-22T00:02:44.828Z,51.29
2022-08-22T00:02:48.856Z,53.62
2022-08-22T00:03:04.983Z,54.04
2022-08-22T00:03:15.001Z,62.57
2022-08-22T00:05:15.058Z,62.20
2022-08-22T00:07:56.801Z,62.52
2022-08-22T00:10:29.614Z,62.17
2022-08-22T00:13:38.162Z,62.74
2022-08-22T00:16:17.329Z,62.38
2022-08-22T00:19:16.900Z,63.37
2022-08-22T00:22:02.988Z,62.89
2022-08-22T00:24:46.932Z,62.81
2022-08-22T00:27:27.208Z,62.82
2022-08-22T00:30:04.818Z,62.56
2022-08-22T00:32:53.543Z,62.53
2022-08-22T00:35:24.568Z,62.47
2022-08-22T00:38:13.729Z,63.01
2022-08-22T00:40:40.748Z,63.00
2022-08-22T00:43:17.263Z,63.19
2022-08-22T00:46:13.315Z,63.33
2022-08-22T00:48:46.571Z,63.42
2022-08-22T00:51:36.445Z,63.63
2022-08-22T00:54:22.341Z,63.27
2022-08-22T00:57:20.528Z,63.54
2022-08-22T00:59:51.945Z,63.81
2022-08-22T01:02:52.862Z,64.10
2022-08-22T01:05:59.338Z,64.46
2022-08-22T01:08:29.456Z,64.34
2022-08-22T01:11:05.907Z,65.57
2022-08-22T01:13:54.816Z,66.20
2022-08-22T01:16:56.050Z,65.97
2022-08-22T01:19:47.122Z,65.74
2022-08-22T01:22:20.218Z,65.49
2022-08-22T01:25:22.454Z,64.97
2022-08-22T01:28:30.416Z,65.51
2022-08-22T01:31:29.817Z,65.89
2022-08-22T01:34:12.894Z,66.01
2022-08-22T01:37:04.981Z,66.03
2022-08-22T01:39:56.801Z,65.83
2022-08-22T01:42:29.783Z,65.65
2022-08-22T01:45:02.510Z,66.05
2022-08-22T01:47:38.511Z,65.74
2022-08-22T01:50:19.166Z,65.77
2022-08-22T01:52:51.069Z,65.70
2022-08-22T01:55:37.067Z,66.64
2022-08-22T01:58:16.282Z,66.38
2022-08-22T02:01:22.309Z,66.43
2022-08-22T02:03:58.490Z,66.23
2022-08-22T02:06:41.719Z,66.56
2022-08-22T02:09:27.714Z,66.67
2022-08-22T02:11:57.599Z,67.54
2022-08-22T02:14:40.073Z,67.64
2022-08-22T02:17:13.393Z,67.67
2022-08-22T02:19:55.225Z,67.29
2022-08-22T02:22:35.665Z,67.41
2022-08-22T02:25:26.384Z,67.54
2022-08-22T02:28:07.184Z,68.12
2022-08-22T02:31:16.814Z,68.20
2022-08-22T02:33:58.774Z,68.62
2022-08-22T02:36:49.585Z,69.06
2022-08-22T02:39:24.012Z,68.66
2022-08-22T02:41:54.055Z,69.12
2022-08-22T02:44:26.160Z,68.85
2022-08-22T02:47:05.571Z,69.71
2022-08-22T02:49:43.662Z,69.08
2022-08-22T02:52:24.230Z,68.76
2022-08-22T02:55:00.014Z,69.31
2022-08-22T02:57:39.722Z,69.62
2022-08-22T03:00:32.560Z,70.20
2022-08-22T03:03:25.832Z,69.65
2022-08-22T03:06:01.659Z,69.43
2022-08-22T03:08:36.170Z,69.82
2022-08-22T03:11:08.978Z,69.26
2022-08-22T03:13:52.272Z,68.87
2022-08-22T03:17:02.217Z,68.82
2022-08-22T03:20:04.710Z,68.67
2022-08-22T03:22:33.836Z,68.55
2022-08-22T03:25:07.402Z,68.63
2022-08-22T03:28:13.868Z,68.58
2022-08-22T03:30:56.068Z,68.40
2022-08-22T03:33:29.993Z,68.40
2022-08-22T03:36:11.874Z,68.02
2022-08-22T03:38:47.951Z,67.64
2022-08-22T03:42:00.161Z,68.44
2022-08-22T03:44:46.381Z,67.91
2022-08-22T03:47:31.697Z,67.62
2022-08-22T03:50:18.119Z,67.80
2022-08-22T03:53:03.822Z,67.42
2022-08-22T03:56:08.771Z,67.47
2022-08-22T03:58:53.657Z,67.91
2022-08-22T04:01:23.836Z,67.76
2022-08-22T04:04:00.114Z,67.43
2022-08-22T04:06:56.322Z,67.42
2022-08-22T04:09:48.338Z,67.74
2022-08-22T04:12:21.650Z,68.18
2022-08-22T04:15:10.673Z,68.04
2022-08-22T04:18:01.315Z,68.71
2022-08-22T04:20:50.376Z,68.14
2022-08-22T04:23:41.183Z,68.08
2022-08-22T04:26:41.575Z,68.15
2022-08-22T04:29:33.183Z,68.85
2022-08-22T04:32:14.012Z,68.34
2022-08-22T04:34:50.707Z,68.01
2022-08-22T04:37:33.562Z,68.41
2022-08-22T04:40:17.392Z,67.89
2022-08-22T04:42:54.478Z,68.44
2022-08-22T04:46:00.515Z,68.57
2022-08-22T04:48:45.614Z,68.81
2022-08-22T04:51:25.151Z,68.50
2022-08-22T04:53:55.232Z,68.38
2022-08-22T04:56:24.651Z,68.18
2022-08-22T04:58:58.587Z,67.99
2022-08-22T05:01:38.559Z,69.17
2022-08-22T05:04:13.062Z,68.83
2022-08-22T05:06:44.226Z,68.67
2022-08-22T05:09:16.333Z,68.61
2022-08-22T05:11:46.328Z,68.95
2022-08-22T05:14:38.442Z,69.19
2022-08-22T05:17:09.328Z,70.08
2022-08-22T05:19:40.043Z,70.95
2022-08-22T05:22:14.342Z,69.55
2022-08-22T05:24:46.162Z,69.72
2022-08-22T05:27:18.251Z,69.45
2022-08-22T05:29:47.972Z,69.04
2022-08-22T05:32:26.258Z,69.26
2022-08-22T05:34:57.940Z,69.08
2022-08-22T05:37:34.165Z,69.26
2022-08-22T05:40:01.627Z,69.30
2022-08-22T05:42:32.015Z,69.21
2022-08-22T05:45:01.825Z,69.70
2022-08-22T05:47:36.919Z,69.30
2022-08-22T05:50:07.087Z,71.46
2022-08-22T05:53:14.470Z,71.16
2022-08-22T05:55:47.619Z,73.70
2022-08-22T05:58:39.546Z,73.17
2022-08-22T06:01:16.159Z,72.29
2022-08-22T06:04:17.876Z,71.64
2022-08-22T06:07:03.344Z,70.81
2022-08-22T06:09:35.241Z,70.71
2022-08-22T06:12:21.727Z,70.53
2022-08-22T06:15:01.900Z,70.76
2022-08-22T06:17:35.628Z,72.92
2022-08-22T06:20:06.637Z,72.54
2022-08-22T06:22:38.453Z,72.49
2022-08-22T06:25:13.618Z,72.17
2022-08-22T06:27:41.204Z,72.34
2022-08-22T06:30:09.401Z,71.84
2022-08-22T06:32:59.761Z,73.27
2022-08-22T06:35:55.649Z,72.54
2022-08-22T06:38:28.619Z,72.69
2022-08-22T06:40:57.917Z,72.16
2022-08-22T06:43:25.415Z,72.72
2022-08-22T06:45:53.196Z,72.35
2022-08-22T06:48:22.235Z,72.02
2022-08-22T06:50:53.270Z,71.79
2022-08-22T06:53:48.232Z,71.23
2022-08-22T06:56:39.548Z,70.95
2022-08-22T06:59:10.891Z,71.13
2022-08-22T07:02:09.131Z,70.65
2022-08-22T07:04:36.697Z,70.28
2022-08-22T07:07:04.021Z,69.90
2022-08-22T07:09:35.169Z,70.09
2022-08-22T07:12:10.924Z,69.91
2022-08-22T07:14:44.143Z,69.51
2022-08-22T07:17:22.009Z,69.17
2022-08-22T07:20:15.322Z,68.50
2022-08-22T07:22:54.178Z,68.28
2022-08-22T07:25:23.018Z,67.64
2022-08-22T07:27:53.002Z,67.32
2022-08-22T07:30:27.920Z,66.83
2022-08-22T07:33:18.966Z,66.82
2022-08-22T07:35:53.113Z,66.23
2022-08-22T07:38:43.794Z,66.29
2022-08-22T07:41:20.325Z,65.42
2022-08-22T07:44:09.958Z,65.25
2022-08-22T07:47:07.582Z,64.85
2022-08-22T07:49:56.228Z,64.59
2022-08-22T07:52:24.017Z,63.82
2022-08-22T07:55:17.395Z,63.83
2022-08-22T07:57:47.709Z,62.56
2022-08-22T08:00:18.949Z,62.16
2022-08-22T08:02:52.218Z,62.33
2022-08-22T08:05:22.203Z,61.96
2022-08-22T08:07:52.548Z,61.50
2022-08-22T08:10:24.207Z,61.62
2022-08-22T08:13:01.905Z,61.31
2022-08-22T08:15:32.200Z,60.21
2022-08-22T08:18:05.389Z,60.50
2022-08-22T08:20:35.542Z,60.00
2022-08-22T08:23:05.100Z,60.27
2022-08-22T08:25:48.819Z,59.50
2022-08-22T08:28:34.222Z,60.03
2022-08-22T08:31:08.229Z,58.78
2022-08-22T08:33:38.585Z,59.57
2022-08-22T08:36:23.222Z,59.74
2022-08-22T08:39:03.264Z,59.21
2022-08-22T08:41:45.150Z,59.12
2022-08-22T08:44:45.871Z,58.74
2022-08-22T08:47:35.150Z,58.07
2022-08-22T08:50:29.629Z,58.22
2022-08-22T08:53:24.312Z,58.75
2022-08-22T08:56:01.897Z,58.34
2022-08-22T08:58:57.051Z,57.75
2022-08-22T09:01:59.222Z,56.56
2022-08-22T09:04:53.628Z,56.55
2022-08-22T09:08:16.912Z,55.83
2022-08-22T09:11:09.550Z,55.47
2022-08-22T09:13:58.869Z,54.68
2022-08-22T09:16:38.324Z,55.08
2022-08-22T09:19:13.406Z,54.59
2022-08-22T09:22:25.564Z,54.96
2022-08-22T09:25:25.020Z,54.75
2022-08-22T09:28:13.711Z,54.94
2022-08-22T09:34:01.408Z,54.83
2022-08-22T09:36:59.881Z,54.83
2022-08-22T09:39:35.829Z,54.15
2022-08-22T09:40:16.741Z,54.98
2022-08-22T09:42:08.777Z,54.63
2022-08-22T09:44:51.528Z,54.56
2022-08-22T09:47:42.253Z,54.71
2022-08-22T09:50:18.531Z,53.87
2022-08-22T09:53:09.847Z,52.46
2022-08-22T09:56:15.507Z,53.58
2022-08-22T09:58:54.672Z,52.88
2022-08-22T10:01:33.025Z,52.60
2022-08-22T10:04:42.275Z,51.99
2022-08-22T10:07:33.070Z,52.38
2022-08-22T10:10:21.398Z,51.27
2022-08-22T10:12:54.533Z,51.53
2022-08-22T10:15:31.628Z,51.42
2022-08-22T10:18:10.928Z,52.07
2022-08-22T10:20:50.876Z,51.96
2022-08-22T10:23:46.033Z,51.61
2022-08-22T10:26:38.535Z,50.93
2022-08-22T10:29:35.633Z,50.12
2022-08-22T10:32:27.053Z,51.00
2022-08-22T10:34:57.795Z,49.56
2022-08-22T10:37:55.677Z,48.59
2022-08-22T10:40:26.639Z,49.43
2022-08-22T10:42:59.946Z,49.52
2022-08-22T10:45:40.326Z,48.41
2022-08-22T10:48:10.651Z,49.16
2022-08-22T10:50:43.000Z,49.62
2022-08-22T10:53:34.952Z,49.45
2022-08-22T10:56:27.389Z,48.89
2022-08-22T10:59:19.387Z,48.89
2022-08-22T11:02:06.792Z,48.53
2022-08-22T11:04:44.193Z,48.34
2022-08-22T11:07:16.838Z,48.70
2022-08-22T11:09:54.256Z,48.12
2022-08-22T11:12:34.666Z,46.76
2022-08-22T11:15:28.353Z,47.94
2022-08-22T11:18:14.708Z,47.74
2022-08-22T11:21:02.476Z,47.36
2022-08-22T11:23:44.769Z,45.84
2022-08-22T11:26:33.684Z,46.74
2022-08-22T11:29:23.101Z,47.17
2022-08-22T11:32:06.701Z,47.03
2022-08-22T11:35:13.638Z,46.72
2022-08-22T11:38:01.269Z,45.29
2022-08-22T11:40:36.489Z,45.95
2022-08-22T11:43:32.361Z,43.48
2022-08-22T11:46:19.748Z,44.36
2022-08-22T11:49:21.187Z,45.24
2022-08-22T11:51:57.294Z,45.80
2022-08-22T11:54:42.083Z,45.92
2022-08-22T11:57:34.276Z,45.96
2022-08-22T12:00:32.641Z,42.17
2022-08-22T12:03:18.264Z,43.77
2022-08-22T12:05:53.776Z,43.23
2022-08-22T12:08:30.862Z,44.08
2022-08-22T12:10:59.984Z,43.83
2022-08-22T12:14:05.165Z,44.68
2022-08-22T12:16:56.426Z,44.06
2022-08-22T12:19:34.192Z,42.03
2022-08-22T12:22:35.571Z,42.54
2022-08-22T12:25:30.776Z,43.44
2022-08-22T12:28:20.503Z,43.81
2022-08-22T12:31:25.505Z,43.39
2022-08-22T12:34:13.879Z,42.99
2022-08-22T12:37:02.910Z,42.56
2022-08-22T12:39:36.215Z,43.13
2022-08-22T12:42:14.328Z,42.55
2022-08-22T12:45:23.539Z,41.13
2022-08-22T12:48:15.468Z,41.97
2022-08-22T12:50:57.249Z,41.89
2022-08-22T12:53:45.129Z,41.36
2022-08-22T12:56:37.668Z,40.92
2022-08-22T12:59:12.226Z,41.82
2022-08-22T13:01:45.535Z,41.37
2022-08-22T13:04:32.963Z,41.35
2022-08-22T13:07:38.379Z,40.07
2022-08-22T13:10:14.290Z,41.05
2022-08-22T13:12:51.073Z,39.78
2022-08-22T13:15:21.118Z,40.30
2022-08-22T13:17:53.952Z,40.58
2022-08-22T13:20:26.723Z,40.38
2022-08-22T13:22:54.606Z,40.59
2022-08-22T13:25:29.048Z,40.90
2022-08-22T13:28:00.408Z,39.88
2022-08-22T13:30:27.736Z,40.40
2022-08-22T13:33:01.631Z,40.38
2022-08-22T13:35:51.894Z,41.36
2022-08-22T13:38:26.556Z,41.25
2022-08-22T13:40:58.235Z,41.50
2022-08-22T13:43:26.267Z,41.86
2022-08-22T13:46:02.083Z,42.23
2022-08-22T13:48:54.189Z,41.59
2022-08-22T13:51:53.204Z,41.09
2022-08-22T13:54:39.460Z,42.05
2022-08-22T13:57:11.089Z,42.82
2022-08-22T13:59:59.488Z,42.36
2022-08-22T14:02:57.549Z,42.72
2022-08-22T14:05:34.518Z,41.88
2022-08-22T14:08:25.800Z,42.83
2022-08-22T14:11:06.622Z,42.29
2022-08-22T14:13:51.139Z,42.48
2022-08-22T14:16:21.163Z,43.87
2022-08-22T14:18:51.331Z,43.32
2022-08-22T14:21:22.405Z,43.73
2022-08-22T14:23:55.623Z,43.75
2022-08-22T14:26:37.356Z,43.87
2022-08-22T14:29:16.283Z,42.50
2022-08-22T14:31:56.618Z,43.33
2022-08-22T14:34:24.897Z,42.96
2022-08-22T14:36:55.093Z,43.78
2022-08-22T14:39:28.893Z,43.87
2022-08-22T14:42:09.894Z,43.52
2022-08-22T14:45:07.060Z,43.57
2022-08-22T14:47:55.563Z,43.82
2022-08-22T14:50:46.208Z,43.83
2022-08-22T14:53:24.909Z,44.09
2022-08-22T14:56:07.082Z,44.06
2022-08-22T14:58:37.117Z,44.34
2022-08-22T15:01:12.887Z,44.06
2022-08-22T15:03:43.211Z,44.29
2022-08-22T15:06:29.595Z,44.40
2022-08-22T15:08:57.296Z,44.31
2022-08-22T15:11:28.226Z,44.20
2022-08-22T15:14:05.383Z,43.47
2022-08-22T15:16:37.647Z,42.76
2022-08-22T15:19:33.134Z,42.27
2022-08-22T15:22:27.478Z,42.18
2022-08-22T15:24:57.784Z,42.83
2022-08-22T15:27:25.877Z,42.33
2022-08-22T15:29:58.761Z,42.19
2022-08-22T15:32:28.917Z,41.72
2022-08-22T15:35:08.148Z,41.47
2022-08-22T15:38:00.434Z,41.53
2022-08-22T15:40:32.181Z,41.43
2022-08-22T15:43:13.352Z,40.90
2022-08-22T15:45:42.587Z,41.44
2022-08-22T15:48:33.837Z,42.17
2022-08-22T15:51:15.942Z,43.19
2022-08-22T15:54:24.747Z,43.01
2022-08-22T15:56:52.966Z,42.85
2022-08-22T15:59:52.594Z,43.25
2022-08-22T16:02:33.267Z,43.53
2022-08-22T16:05:11.538Z,43.84
2022-08-22T16:07:57.126Z,43.79
2022-08-22T16:10:24.262Z,43.78
2022-08-22T16:13:13.200Z,43.74
2022-08-22T16:15:54.169Z,43.61
2022-08-22T16:18:44.817Z,43.74
2022-08-22T16:21:20.902Z,43.46
2022-08-22T16:23:51.185Z,43.37
2022-08-22T16:26:30.511Z,43.04
2022-08-22T16:28:58.854Z,44.09
2022-08-22T16:31:29.049Z,43.63
2022-08-22T16:34:18.198Z,43.26
2022-08-22T16:37:03.936Z,44.12
2022-08-22T16:39:36.220Z,44.86
2022-08-22T16:42:15.733Z,44.53
2022-08-22T16:44:46.103Z,45.25
2022-08-22T16:47:23.095Z,46.18
2022-08-22T16:49:50.155Z,44.96
2022-08-22T16:52:23.407Z,45.91
2022-08-22T16:54:59.121Z,45.89
2022-08-22T16:58:05.652Z,46.12
2022-08-22T17:00:59.422Z,45.78
2022-08-22T17:03:32.623Z,46.39
2022-08-22T17:06:32.260Z,46.27
2022-08-22T17:09:41.529Z,46.11
2022-08-22T17:12:39.788Z,46.56
2022-08-22T17:15:13.271Z,46.78
2022-08-22T17:18:11.876Z,47.64
2022-08-22T17:21:05.207Z,47.53
2022-08-22T17:23:53.817Z,47.07
2022-08-22T17:26:30.057Z,47.49
2022-08-22T17:29:34.867Z,47.83
2022-08-22T17:32:33.331Z,48.12
2022-08-22T17:35:03.700Z,47.94
2022-08-22T17:37:33.884Z,48.42
2022-08-22T17:40:37.536Z,48.75
2022-08-22T17:43:27.401Z,49.26
2022-08-22T17:46:13.404Z,49.69
2022-08-22T17:48:49.561Z,49.83
2022-08-22T17:51:28.940Z,49.98
2022-08-22T17:54:06.577Z,50.12
2022-08-22T17:57:00.286Z,50.25
2022-08-22T17:59:59.722Z,50.08
2022-08-22T18:02:42.916Z,50.28
2022-08-22T18:05:19.236Z,50.47
2022-08-22T18:08:06.148Z,50.79
2022-08-22T18:10:38.630Z,50.69
2022-08-22T18:13:29.124Z,50.77
2022-08-22T18:16:00.060Z,51.07
2022-08-22T18:18:37.369Z,51.49
2022-08-22T18:21:27.887Z,51.54
2022-08-22T18:24:09.198Z,51.85
2022-08-22T18:26:48.509Z,51.96
2022-08-22T18:29:23.847Z,52.18
2022-08-22T18:32:13.222Z,52.26
2022-08-22T18:35:18.283Z,52.78
2022-08-22T18:40:56.743Z,53.02
2022-08-22T18:43:45.444Z,52.88
2022-08-22T18:46:52.282Z,53.67
2022-08-22T18:49:22.659Z,54.86
2022-08-22T18:52:25.702Z,54.77
2022-08-22T18:55:08.296Z,55.58
2022-08-22T18:58:05.718Z,56.55
2022-08-22T19:00:58.013Z,56.53
2022-08-22T19:03:41.183Z,56.47
2022-08-22T19:06:28.467Z,57.11
2022-08-22T19:09:24.263Z,58.00
2022-08-22T19:12:13.027Z,57.89
2022-08-22T19:14:48.945Z,57.67
2022-08-22T19:17:41.223Z,57.17
2022-08-22T19:20:54.371Z,56.22
2022-08-22T19:23:34.235Z,56.24
2022-08-22T19:26:25.806Z,56.03
2022-08-22T19:29:08.752Z,56.40
2022-08-22T19:31:42.581Z,56.68
2022-08-22T19:37:42.963Z,56.54
2022-08-22T19:41:05.268Z,57.07
2022-08-22T19:43:53.730Z,57.06
2022-08-22T19:46:42.145Z,56.72
2022-08-22T19:49:27.110Z,56.91
2022-08-22T19:56:44.205Z,56.38
2022-08-22T19:59:38.262Z,56.02
2022-08-22T20:02:36.009Z,56.00
2022-08-22T20:05:12.553Z,55.73
2022-08-22T20:07:56.097Z,55.69
2022-08-22T20:10:47.940Z,56.15
2022-08-22T20:17:13.000Z,55.69
2022-08-22T20:22:49.440Z,56.17
2022-08-22T20:25:51.531Z,56.42
2022-08-22T20:28:39.549Z,56.58
2022-08-22T20:31:18.552Z,57.12
2022-08-22T20:33:51.574Z,57.37
2022-08-22T20:36:27.919Z,57.55
2022-08-22T20:39:14.555Z,57.87
2022-08-22T20:41:46.682Z,58.58
2022-08-22T20:44:38.275Z,58.80
2022-08-22T20:47:13.380Z,58.83
2022-08-22T20:49:55.786Z,60.71
2022-08-22T20:53:12.517Z,60.41
2022-08-22T20:56:08.261Z,59.56
2022-08-22T20:58:40.230Z,60.34
2022-08-22T21:01:11.396Z,59.78
2022-08-22T21:03:47.929Z,59.87
2022-08-22T21:06:20.188Z,59.84
2022-08-22T21:09:12.115Z,59.78
2022-08-22T21:11:50.280Z,61.44
2022-08-22T21:14:23.604Z,62.89
2022-08-22T21:16:51.857Z,62.11
2022-08-22T21:19:28.184Z,63.09
2022-08-22T21:22:14.365Z,64.31
2022-08-22T21:24:41.889Z,64.02
2022-08-22T21:27:14.414Z,64.15
2022-08-22T21:29:46.482Z,64.06
2022-08-22T21:32:13.619Z,64.79
2022-08-22T21:34:47.094Z,65.62
2022-08-22T21:37:29.311Z,65.01
2022-08-22T21:40:14.851Z,64.45
2022-08-22T21:42:43.028Z,64.66
2022-08-22T21:45:25.630Z,66.71
2022-08-22T21:47:53.055Z,66.47
2022-08-22T21:50:23.478Z,65.43
2022-08-22T21:52:53.807Z,66.84
2022-08-22T21:55:32.813Z,70.29
2022-08-22T21:58:04.995Z,68.79
2022-08-22T22:00:39.840Z,68.74
2022-08-22T22:03:24.313Z,68.07
2022-08-22T22:05:54.838Z,70.38
2022-08-22T22:08:22.192Z,70.47
2022-08-22T22:10:50.158Z,69.87
2022-08-22T22:13:19.290Z,69.35
2022-08-22T22:15:49.332Z,71.90
2022-08-22T22:18:20.139Z,72.92
2022-08-22T22:20:48.489Z,71.69
2022-08-22T22:23:15.718Z,70.17
2022-08-22T22:25:43.543Z,72.79
2022-08-22T22:28:31.738Z,72.60
2022-08-22T22:30:59.183Z,72.57
2022-08-22T22:33:36.046Z,73.14
2022-08-22T22:36:25.900Z,74.11
2022-08-22T22:38:53.955Z,73.13
2022-08-22T22:41:25.355Z,72.47
2022-08-22T22:43:54.170Z,71.89
2022-08-22T22:46:22.651Z,70.93
2022-08-22T22:48:50.193Z,69.96
2022-08-22T22:51:17.364Z,70.44
2022-08-22T22:53:45.104Z,70.04
2022-08-22T22:56:16.073Z,70.11
2022-08-22T22:58:43.868Z,70.41
2022-08-22T23:01:18.712Z,70.09
2022-08-22T23:03:46.418Z,70.29
2022-08-22T23:06:19.337Z,70.07
2022-08-22T23:08:47.747Z,70.52
2022-08-22T23:11:18.833Z,69.87
2022-08-22T23:13:48.427Z,69.44
2022-08-22T23:16:18.600Z,69.24
2022-08-22T23:18:46.522Z,68.79
2022-08-22T23:21:19.159Z,68.88
2022-08-22T23:23:47.579Z,69.13
2022-08-22T23:26:15.703Z,68.84
2022-08-22T23:28:43.605Z,69.28
2022-08-22T23:31:20.180Z,69.71
2022-08-22T23:33:47.825Z,69.49
2022-08-22T23:36:18.837Z,70.92
2022-08-22T23:38:50.191Z,70.43
2022-08-22T23:41:19.002Z,70.89
2022-08-22T23:43:50.473Z,73.03
2022-08-22T23:46:19.707Z,73.13
2022-08-22T23:48:47.302Z,72.27
2022-08-22T23:51:17.087Z,71.60
2022-08-22T23:53:49.465Z,75.04
2022-08-22T23:56:25.377Z,73.97
2022-08-22T23:58:53.459Z,73.87
